createdAt,value
2023-05-12T00:01:27.197Z,9.89
2023-05-12T00:03:54.135Z,9.88
2023-05-12T00:06:21.176Z,9.82
2023-05-12T00:08:47.715Z,9.93
2023-05-12T00:11:14.234Z,9.91
2023-05-12T00:13:40.909Z,9.96
2023-05-12T00:16:07.543Z,9.91
2023-05-12T00:18:34.220Z,9.89
2023-05-12T00:21:01.118Z,9.91
2023-05-12T00:23:27.586Z,9.81
2023-05-12T00:25:54.115Z,9.82
2023-05-12T00:28:20.849Z,9.89
2023-05-12T00:30:47.364Z,9.87
2023-05-12T00:33:13.884Z,9.99
2023-05-12T00:35:40.462Z,9.93
2023-05-12T00:38:06.983Z,10.01
2023-05-12T00:40:33.963Z,9.96
2023-05-12T00:43:00.439Z,9.93
2023-05-12T00:45:29.393Z,9.86
2023-05-12T00:47:57.141Z,9.85
2023-05-12T00:50:24.137Z,9.87
2023-05-12T00:52:51.786Z,9.88
2023-05-12T00:55:18.868Z,9.89
2023-05-12T00:57:45.507Z,9.88
2023-05-12T01:00:13.055Z,9.88
2023-05-12T01:02:42.171Z,9.93
2023-05-12T01:05:09.984Z,9.87
2023-05-12T01:07:39.188Z,9.93
2023-05-12T01:10:18.881Z,9.90
2023-05-12T01:12:45.990Z,9.87
2023-05-12T01:15:13.101Z,9.88
2023-05-12T01:17:47.749Z,9.80
2023-05-12T01:20:17.438Z,9.91
2023-05-12T01:22:46.390Z,9.85
2023-05-12T01:25:14.792Z,9.92
2023-05-12T01:27:43.119Z,9.92
2023-05-12T01:30:13.309Z,9.84
2023-05-12T01:32:40.679Z,9.87
2023-05-12T01:35:07.988Z,9.85
2023-05-12T01:37:36.260Z,9.88
2023-05-12T01:40:05.033Z,9.91
2023-05-12T01:42:32.006Z,9.85
2023-05-12T01:44:58.867Z,9.84
2023-05-12T01:47:26.633Z,9.86
2023-05-12T01:50:06.763Z,9.81
2023-05-12T01:52:33.262Z,9.87
2023-05-12T01:54:59.763Z,9.86
2023-05-12T01:57:29.276Z,9.84
2023-05-12T01:59:58.660Z,9.80
2023-05-12T02:02:25.270Z,9.83
2023-05-12T02:04:51.996Z,9.79
2023-05-12T02:07:18.851Z,9.65
2023-05-12T02:09:46.141Z,9.70
2023-05-12T02:12:13.402Z,9.83
2023-05-12T02:14:39.890Z,9.72
2023-05-12T02:17:06.393Z,9.75
2023-05-12T02:19:32.956Z,9.86
2023-05-12T02:21:59.512Z,9.78
2023-05-12T02:24:26.236Z,9.81
2023-05-12T02:26:52.737Z,9.92
2023-05-12T02:29:19.455Z,9.78
2023-05-12T02:31:46.096Z,9.74
2023-05-12T02:34:15.980Z,9.76
2023-05-12T02:36:42.492Z,9.78
2023-05-12T02:39:09.038Z,9.89
2023-05-12T02:41:35.796Z,9.92
2023-05-12T02:44:02.313Z,9.72
2023-05-12T02:46:28.872Z,9.82
2023-05-12T02:48:56.069Z,10.02
2023-05-12T02:51:22.937Z,9.99
2023-05-12T02:53:49.480Z,10.01
2023-05-12T02:56:17.761Z,9.79
2023-05-12T02:58:44.316Z,9.72
2023-05-12T03:01:11.916Z,9.70
2023-05-12T03:03:40.420Z,9.80
2023-05-12T03:06:07.751Z,9.76
2023-05-12T03:08:34.779Z,9.83
2023-05-12T03:11:01.543Z,9.88
2023-05-12T03:13:28.037Z,9.87
2023-05-12T03:15:55.621Z,9.79
2023-05-12T03:18:22.260Z,9.84
2023-05-12T03:20:49.999Z,9.82
2023-05-12T03:23:16.896Z,9.80
2023-05-12T03:25:43.834Z,9.76
2023-05-12T03:28:10.589Z,9.70
2023-05-12T03:30:37.145Z,9.64
2023-05-12T03:33:03.888Z,9.80
2023-05-12T03:35:31.033Z,9.85
2023-05-12T03:38:01.625Z,9.79
2023-05-12T03:40:28.348Z,9.79
2023-05-12T03:42:54.827Z,9.68
2023-05-12T03:45:21.414Z,9.70
2023-05-12T03:47:48.520Z,9.88
2023-05-12T03:50:15.191Z,9.87
2023-05-12T03:52:41.712Z,9.93
2023-05-12T03:55:09.092Z,9.89
2023-05-12T03:57:37.585Z,10.03
2023-05-12T04:00:07.799Z,9.92
2023-05-12T04:02:43.460Z,9.76
2023-05-12T04:05:10.273Z,9.91
2023-05-12T04:07:36.898Z,10.03
2023-05-12T04:10:03.899Z,10.00
2023-05-12T04:12:30.400Z,9.81
2023-05-12T04:14:57.435Z,9.84
2023-05-12T04:17:24.397Z,9.87
2023-05-12T04:19:53.388Z,9.85
2023-05-12T04:22:19.891Z,9.89
2023-05-12T04:24:46.430Z,9.91
2023-05-12T04:27:12.955Z,9.78
2023-05-12T04:29:39.684Z,9.79
2023-05-12T04:32:06.589Z,9.81
2023-05-12T04:34:34.506Z,9.85
2023-05-12T04:37:01.095Z,9.80
2023-05-12T04:39:28.248Z,9.99
2023-05-12T04:41:54.769Z,9.94
2023-05-12T04:44:22.319Z,9.88
2023-05-12T04:46:53.270Z,10.01
2023-05-12T04:49:20.014Z,10.05
2023-05-12T04:51:47.779Z,9.96
2023-05-12T04:54:14.274Z,10.05
2023-05-12T04:56:40.947Z,10.00
2023-05-12T04:59:07.741Z,9.90
2023-05-12T05:01:34.433Z,10.06
2023-05-12T05:04:01.330Z,10.11
2023-05-12T05:06:28.329Z,10.10
2023-05-12T05:08:55.870Z,10.16
2023-05-12T05:11:23.112Z,10.10
2023-05-12T05:13:49.706Z,10.21
2023-05-12T05:16:17.527Z,10.20
2023-05-12T05:18:46.638Z,10.19
2023-05-12T05:21:16.595Z,10.35
2023-05-12T05:23:43.398Z,10.32
2023-05-12T05:26:10.404Z,10.25
2023-05-12T05:28:39.780Z,10.24
2023-05-12T05:31:07.424Z,10.22
2023-05-12T05:33:34.625Z,10.34
2023-05-12T05:36:01.916Z,10.52
2023-05-12T05:38:28.762Z,10.54
2023-05-12T05:40:55.217Z,10.76
2023-05-12T05:43:23.357Z,10.57
2023-05-12T05:45:50.417Z,10.52
2023-05-12T05:48:18.174Z,10.64
2023-05-12T05:50:46.636Z,10.88
2023-05-12T05:53:13.195Z,10.65
2023-05-12T05:55:40.253Z,10.56
2023-05-12T05:58:06.831Z,10.55
2023-05-12T06:00:33.533Z,10.79
2023-05-12T06:03:00.142Z,10.72
2023-05-12T06:05:26.742Z,10.76
2023-05-12T06:07:53.528Z,10.76
2023-05-12T06:10:20.283Z,10.57
2023-05-12T06:12:47.933Z,10.83
2023-05-12T06:15:14.461Z,10.83
2023-05-12T06:17:41.228Z,10.91
2023-05-12T06:20:08.930Z,10.88
2023-05-12T06:22:35.495Z,10.87
2023-05-12T06:25:03.780Z,10.98
2023-05-12T06:27:31.415Z,10.88
2023-05-12T06:29:57.885Z,10.99
2023-05-12T06:32:24.345Z,11.09
2023-05-12T06:34:50.878Z,11.14
2023-05-12T06:37:17.379Z,11.34
2023-05-12T06:39:43.869Z,11.32
2023-05-12T06:42:11.463Z,11.22
2023-05-12T06:44:42.507Z,11.23
2023-05-12T06:47:09.239Z,11.34
2023-05-12T06:49:37.127Z,11.35
2023-05-12T06:52:05.211Z,11.34
2023-05-12T06:54:31.672Z,11.25
2023-05-12T06:56:58.500Z,11.48
2023-05-12T06:59:25.108Z,11.32
2023-05-12T07:01:51.636Z,11.36
2023-05-12T07:04:18.167Z,11.30
2023-05-12T07:06:44.631Z,11.29
2023-05-12T07:09:11.167Z,11.52
2023-05-12T07:11:37.679Z,11.75
2023-05-12T07:14:04.173Z,11.92
2023-05-12T07:16:30.819Z,11.96
2023-05-12T07:18:57.424Z,12.01
2023-05-12T07:21:24.452Z,12.06
2023-05-12T07:23:59.888Z,12.19
2023-05-12T07:26:28.657Z,11.92
2023-05-12T07:28:55.283Z,12.18
2023-05-12T07:31:22.031Z,12.15
2023-05-12T07:33:48.734Z,12.21
2023-05-12T07:36:15.246Z,12.29
2023-05-12T07:38:42.212Z,12.24
2023-05-12T07:41:08.692Z,12.38
2023-05-12T07:43:35.145Z,12.51
2023-05-12T07:46:02.386Z,12.61
2023-05-12T07:48:30.541Z,12.51
2023-05-12T07:50:57.400Z,12.52
2023-05-12T07:53:23.860Z,12.56
2023-05-12T07:55:50.374Z,12.52
2023-05-12T07:58:16.842Z,12.44
2023-05-12T08:00:44.698Z,12.43
2023-05-12T08:03:11.233Z,12.41
2023-05-12T08:05:37.732Z,12.45
2023-05-12T08:08:04.304Z,12.15
2023-05-12T08:10:32.593Z,12.31
2023-05-12T08:12:59.044Z,12.23
2023-05-12T08:15:25.571Z,12.35
2023-05-12T08:17:52.055Z,12.70
2023-05-12T08:20:18.783Z,12.77
2023-05-12T08:22:47.743Z,12.83
2023-05-12T08:25:14.643Z,12.56
2023-05-12T08:27:41.180Z,12.81
2023-05-12T08:30:08.791Z,12.67
2023-05-12T08:32:35.818Z,12.54
2023-05-12T08:35:02.371Z,12.54
2023-05-12T08:37:29.119Z,12.72
2023-05-12T08:39:55.733Z,12.84
2023-05-12T08:42:42.529Z,12.80
2023-05-12T08:45:11.138Z,12.81
2023-05-12T08:47:38.168Z,12.83
2023-05-12T08:50:05.565Z,12.95
2023-05-12T08:52:34.129Z,12.78
2023-05-12T08:55:03.282Z,13.05
2023-05-12T08:57:31.241Z,13.08
2023-05-12T08:59:59.441Z,13.15
2023-05-12T09:02:35.219Z,13.52
2023-05-12T09:05:08.837Z,13.46
2023-05-12T09:07:38.574Z,13.60
2023-05-12T09:10:07.529Z,13.31
2023-05-12T09:12:36.591Z,13.07
2023-05-12T09:15:05.549Z,13.34
2023-05-12T09:17:32.104Z,13.21
2023-05-12T09:19:58.624Z,13.05
2023-05-12T09:22:33.510Z,13.16
2023-05-12T09:24:59.952Z,13.25
2023-05-12T09:27:28.001Z,13.32
2023-05-12T09:29:59.654Z,13.31
2023-05-12T09:32:31.878Z,13.23
2023-05-12T09:35:11.067Z,13.41
2023-05-12T09:37:38.385Z,13.66
2023-05-12T09:40:07.401Z,13.84
2023-05-12T09:42:35.639Z,13.67
2023-05-12T09:45:03.858Z,13.94
2023-05-12T09:47:38.004Z,14.32
2023-05-12T09:50:06.512Z,14.21
2023-05-12T09:52:37.741Z,14.15
2023-05-12T09:55:11.990Z,14.43
2023-05-12T09:57:44.281Z,14.35
2023-05-12T10:00:34.571Z,14.28
2023-05-12T10:03:15.824Z,14.24
2023-05-12T10:06:05.028Z,14.09
2023-05-12T10:08:58.745Z,13.85
2023-05-12T10:11:25.839Z,13.51
2023-05-12T10:13:53.886Z,13.42
2023-05-12T10:16:21.689Z,13.48
2023-05-12T10:18:48.842Z,13.37
2023-05-12T10:21:16.027Z,13.30
2023-05-12T10:23:44.354Z,13.11
2023-05-12T10:26:11.374Z,13.34
2023-05-12T10:28:38.200Z,13.42
2023-05-12T10:31:07.547Z,13.69
2023-05-12T10:33:34.220Z,13.58
2023-05-12T10:36:00.866Z,13.27
2023-05-12T10:38:36.091Z,13.17
2023-05-12T10:41:05.699Z,12.64
2023-05-12T10:43:42.050Z,12.49
2023-05-12T10:46:20.834Z,12.48
2023-05-12T10:48:54.111Z,12.45
2023-05-12T10:51:28.251Z,12.48
2023-05-12T10:54:01.134Z,12.49
2023-05-12T10:56:49.834Z,12.27
2023-05-12T10:59:20.943Z,12.13
2023-05-12T11:02:05.101Z,12.15
2023-05-12T11:04:40.506Z,12.25
2023-05-12T11:07:09.773Z,12.15
2023-05-12T11:09:43.431Z,12.22
2023-05-12T11:12:20.456Z,12.41
2023-05-12T11:14:47.499Z,12.50
2023-05-12T11:17:14.944Z,12.71
2023-05-12T11:19:45.851Z,12.92
2023-05-12T11:22:12.912Z,13.38
2023-05-12T11:24:40.872Z,13.58
2023-05-12T11:27:12.456Z,13.65
2023-05-12T11:29:41.298Z,13.53
2023-05-12T11:32:14.760Z,13.51
2023-05-12T11:34:41.523Z,13.44
2023-05-12T11:37:08.070Z,13.44
2023-05-12T11:39:36.107Z,13.40
2023-05-12T11:42:13.529Z,13.35
2023-05-12T11:44:48.222Z,13.21
2023-05-12T11:47:16.280Z,13.47
2023-05-12T11:49:50.289Z,13.65
2023-05-12T11:52:17.824Z,13.72
2023-05-12T11:54:58.503Z,13.70
2023-05-12T11:57:30.290Z,13.86
2023-05-12T12:00:02.061Z,13.75
2023-05-12T12:02:33.464Z,13.74
2023-05-12T12:05:00.709Z,13.97
2023-05-12T12:07:35.708Z,13.91
2023-05-12T12:10:16.861Z,14.18
2023-05-12T12:12:44.408Z,14.45
2023-05-12T12:15:12.323Z,14.64
2023-05-12T12:17:39.663Z,14.85
2023-05-12T12:20:07.823Z,14.85
2023-05-12T12:22:34.621Z,14.91
2023-05-12T12:25:02.445Z,14.58
2023-05-12T12:27:28.958Z,14.63
2023-05-12T12:29:55.563Z,14.51
2023-05-12T12:32:22.169Z,14.33
2023-05-12T12:34:49.178Z,14.15
2023-05-12T12:37:16.160Z,14.31
2023-05-12T12:39:42.801Z,14.05
2023-05-12T12:42:09.477Z,13.92
2023-05-12T12:44:36.004Z,13.78
2023-05-12T12:47:02.507Z,13.84
2023-05-12T12:49:28.992Z,13.73
2023-05-12T12:51:55.951Z,13.76
2023-05-12T12:54:22.658Z,13.71
2023-05-12T12:56:49.219Z,13.74
2023-05-12T12:59:15.699Z,13.75
2023-05-12T13:01:42.869Z,13.87
2023-05-12T13:04:09.498Z,14.07
2023-05-12T13:09:39.072Z,14.41
2023-05-12T13:12:05.869Z,14.71
2023-05-12T13:14:32.357Z,14.80
2023-05-12T13:16:58.869Z,14.78
2023-05-12T13:19:25.372Z,14.96
2023-05-12T13:21:51.782Z,15.18
2023-05-12T13:24:18.255Z,15.26
2023-05-12T13:26:44.775Z,15.34
2023-05-12T13:29:11.494Z,15.31
2023-05-12T13:31:38.659Z,15.16
2023-05-12T13:34:05.140Z,15.08
2023-05-12T13:36:34.433Z,14.99
2023-05-12T13:39:01.736Z,14.97
2023-05-12T13:41:28.137Z,14.73
2023-05-12T13:43:54.579Z,14.40
2023-05-12T13:46:21.007Z,14.59
2023-05-12T13:48:47.928Z,14.60
2023-05-12T13:51:14.743Z,14.74
2023-05-12T13:53:42.923Z,14.91
2023-05-12T13:56:16.512Z,14.93
2023-05-12T13:58:43.615Z,14.72
2023-05-12T14:01:10.919Z,14.71
2023-05-12T14:03:37.726Z,15.00
2023-05-12T14:06:04.989Z,15.00
2023-05-12T14:08:31.412Z,14.90
2023-05-12T14:10:57.956Z,14.71
2023-05-12T14:13:25.647Z,14.60
2023-05-12T14:15:53.451Z,14.47
2023-05-12T14:18:20.332Z,14.46
2023-05-12T14:20:47.231Z,14.24
2023-05-12T14:23:13.690Z,14.24
2023-05-12T14:25:40.177Z,14.22
2023-05-12T14:28:06.610Z,14.17
2023-05-12T14:30:35.187Z,14.06
2023-05-12T14:33:02.612Z,13.88
2023-05-12T14:35:29.468Z,13.94
2023-05-12T14:37:56.736Z,13.79
2023-05-12T14:40:23.753Z,13.59
2023-05-12T14:42:50.302Z,13.46
2023-05-12T14:45:16.879Z,13.40
2023-05-12T14:47:43.410Z,13.43
2023-05-12T14:50:10.569Z,13.51
2023-05-12T14:52:38.487Z,13.47
2023-05-12T14:55:12.393Z,13.63
2023-05-12T14:57:39.561Z,13.80
2023-05-12T15:00:11.527Z,13.88
2023-05-12T15:02:39.285Z,14.02
2023-05-12T15:05:07.186Z,13.99
2023-05-12T15:07:33.625Z,13.99
2023-05-12T15:10:00.759Z,14.12
2023-05-12T15:12:27.315Z,14.26
2023-05-12T15:14:53.815Z,14.24
2023-05-12T15:17:20.295Z,14.24
2023-05-12T15:19:46.771Z,14.20
2023-05-12T15:22:13.668Z,14.28
2023-05-12T15:24:40.073Z,14.31
2023-05-12T15:27:07.093Z,14.34
2023-05-12T15:29:37.798Z,14.45
2023-05-12T15:32:04.893Z,14.35
2023-05-12T15:34:32.185Z,14.34
2023-05-12T15:36:58.655Z,14.20
2023-05-12T15:39:25.054Z,14.23
2023-05-12T15:41:51.568Z,14.16
2023-05-12T15:44:18.148Z,14.41
2023-05-12T15:46:44.766Z,14.57
2023-05-12T15:49:11.190Z,14.61
2023-05-12T15:51:37.938Z,14.79
2023-05-12T15:54:07.031Z,15.10
2023-05-12T15:56:34.994Z,15.73
2023-05-12T15:59:01.409Z,16.27
2023-05-12T16:01:27.940Z,16.47
2023-05-12T16:03:54.502Z,16.25
2023-05-12T16:06:21.980Z,15.53
2023-05-12T16:08:48.620Z,15.00
2023-05-12T16:11:15.043Z,14.60
2023-05-12T16:13:41.718Z,14.46
2023-05-12T16:16:08.261Z,14.40
2023-05-12T16:18:35.028Z,14.24
2023-05-12T16:21:05.159Z,14.27
2023-05-12T16:23:31.628Z,14.32
2023-05-12T16:25:59.206Z,14.51
2023-05-12T16:28:25.588Z,14.41
2023-05-12T16:30:51.991Z,14.48
2023-05-12T16:33:18.411Z,14.40
2023-05-12T16:35:44.827Z,14.45
2023-05-12T16:38:11.223Z,14.48
2023-05-12T16:40:37.620Z,14.48
2023-05-12T16:43:05.491Z,14.59
2023-05-12T16:45:31.926Z,14.51
2023-05-12T16:47:58.394Z,14.44
2023-05-12T16:50:24.804Z,14.33
2023-05-12T16:52:52.062Z,14.41
2023-05-12T16:55:18.871Z,14.35
2023-05-12T16:57:45.607Z,14.31
2023-05-12T17:00:12.731Z,14.29
2023-05-12T17:02:39.272Z,14.08
2023-05-12T17:05:06.133Z,13.97
2023-05-12T17:07:35.052Z,13.90
2023-05-12T17:10:01.812Z,13.85
2023-05-12T17:12:28.246Z,13.80
2023-05-12T17:15:03.852Z,13.78
2023-05-12T17:17:34.527Z,13.72
2023-05-12T17:20:01.134Z,13.76
2023-05-12T17:22:27.944Z,13.71
2023-05-12T17:24:54.442Z,13.59
2023-05-12T17:27:20.883Z,13.54
2023-05-12T17:29:47.286Z,13.53
2023-05-12T17:32:13.697Z,13.62
2023-05-12T17:34:40.131Z,13.65
2023-05-12T17:37:06.548Z,13.75
2023-05-12T17:39:34.141Z,13.70
2023-05-12T17:42:00.534Z,13.68
2023-05-12T17:44:27.023Z,13.62
2023-05-12T17:46:53.720Z,13.54
2023-05-12T17:49:20.160Z,13.46
2023-05-12T17:51:46.876Z,13.36
2023-05-12T17:54:13.430Z,13.17
2023-05-12T17:56:39.915Z,13.18
2023-05-12T17:59:06.874Z,13.34
2023-05-12T18:01:33.361Z,13.36
2023-05-12T18:03:59.782Z,13.36
2023-05-12T18:06:26.232Z,13.33
2023-05-12T18:08:53.105Z,13.25
2023-05-12T18:11:19.812Z,13.07
2023-05-12T18:13:46.331Z,13.05
2023-05-12T18:16:25.043Z,13.16
2023-05-12T18:18:54.660Z,13.07
2023-05-12T18:21:21.104Z,13.02
2023-05-12T18:23:47.501Z,13.11
2023-05-12T18:26:13.912Z,12.99
2023-05-12T18:28:40.612Z,13.11
2023-05-12T18:31:16.061Z,13.02
2023-05-12T18:33:45.714Z,13.05
2023-05-12T18:36:12.435Z,13.03
2023-05-12T18:38:38.856Z,13.06
2023-05-12T18:41:05.352Z,13.02
2023-05-12T18:43:31.827Z,13.07
2023-05-12T18:45:58.373Z,13.08
2023-05-12T18:48:25.286Z,13.00
2023-05-12T18:50:51.726Z,12.99
2023-05-12T18:53:18.265Z,12.90
2023-05-12T18:55:44.796Z,13.00
2023-05-12T18:58:11.268Z,12.84
2023-05-12T19:00:37.750Z,12.74
2023-05-12T19:03:04.465Z,12.76
2023-05-12T19:05:31.031Z,12.61
2023-05-12T19:07:57.500Z,12.74
2023-05-12T19:10:23.977Z,12.73
2023-05-12T19:12:51.050Z,12.74
2023-05-12T19:15:17.886Z,12.67
2023-05-12T19:17:44.517Z,12.50
2023-05-12T19:20:11.289Z,12.40
2023-05-12T19:22:37.947Z,12.40
2023-05-12T19:25:05.950Z,12.31
2023-05-12T19:27:32.578Z,12.29
2023-05-12T19:29:59.191Z,12.36
2023-05-12T19:32:25.709Z,12.26
2023-05-12T19:34:52.265Z,12.20
2023-05-12T19:37:19.404Z,12.14
2023-05-12T19:39:46.239Z,12.16
2023-05-12T19:42:12.726Z,12.19
2023-05-12T19:44:39.182Z,12.26
2023-05-12T19:47:05.815Z,12.17
2023-05-12T19:49:34.275Z,12.10
2023-05-12T19:52:01.647Z,12.11
2023-05-12T19:54:28.168Z,12.04
2023-05-12T19:56:54.743Z,11.99
2023-05-12T19:59:21.266Z,11.98
2023-05-12T20:01:49.196Z,12.03
2023-05-12T20:04:16.057Z,12.13
2023-05-12T20:06:42.941Z,12.13
2023-05-12T20:09:10.111Z,12.13
2023-05-12T20:11:36.549Z,12.03
2023-05-12T20:14:03.012Z,12.02
2023-05-12T20:16:29.633Z,12.02
2023-05-12T20:18:56.773Z,11.94
2023-05-12T20:21:23.197Z,11.91
2023-05-12T20:23:49.628Z,12.00
2023-05-12T20:26:16.063Z,11.87
2023-05-12T20:28:42.493Z,11.86
2023-05-12T20:31:10.091Z,11.87
2023-05-12T20:33:36.569Z,11.75
2023-05-12T20:36:03.142Z,11.82
2023-05-12T20:38:29.640Z,11.78
2023-05-12T20:40:56.121Z,11.77
2023-05-12T20:43:22.654Z,11.70
2023-05-12T20:45:49.238Z,11.60
2023-05-12T20:48:15.718Z,11.66
2023-05-12T20:50:43.077Z,11.61
2023-05-12T20:53:09.485Z,11.63
2023-05-12T20:55:36.209Z,11.62
2023-05-12T20:58:02.811Z,11.63
2023-05-12T21:00:29.408Z,11.62
2023-05-12T21:02:56.155Z,11.68
2023-05-12T21:05:22.930Z,11.71
2023-05-12T21:07:49.679Z,11.59
2023-05-12T21:10:16.240Z,11.55
2023-05-12T21:12:43.702Z,11.54
2023-05-12T21:15:10.754Z,11.52
2023-05-12T21:17:39.379Z,11.58
2023-05-12T21:20:10.928Z,11.56
2023-05-12T21:22:38.509Z,11.62
2023-05-12T21:25:05.408Z,11.51
2023-05-12T21:27:31.949Z,11.39
2023-05-12T21:29:58.588Z,11.34
2023-05-12T21:32:25.275Z,11.28
2023-05-12T21:34:51.791Z,11.35
2023-05-12T21:37:18.368Z,11.26
2023-05-12T21:39:44.875Z,11.15
2023-05-12T21:42:11.405Z,11.09
2023-05-12T21:44:37.903Z,11.04
2023-05-12T21:47:04.681Z,11.28
2023-05-12T21:49:31.262Z,11.10
2023-05-12T21:51:57.713Z,11.13
2023-05-12T21:54:24.327Z,11.17
2023-05-12T21:56:50.942Z,11.36
2023-05-12T21:59:17.580Z,11.37
2023-05-12T22:01:44.153Z,11.26
2023-05-12T22:04:10.763Z,11.35
2023-05-12T22:06:37.362Z,11.23
2023-05-12T22:09:04.864Z,11.11
2023-05-12T22:11:31.379Z,11.01
2023-05-12T22:13:57.847Z,10.98
2023-05-12T22:16:31.114Z,11.01
2023-05-12T22:19:01.153Z,11.06
2023-05-12T22:21:27.645Z,11.21
2023-05-12T22:23:54.108Z,11.05
2023-05-12T22:26:20.614Z,10.88
2023-05-12T22:28:47.111Z,10.75
2023-05-12T22:31:13.628Z,10.74
2023-05-12T22:33:40.214Z,10.56
2023-05-12T22:36:07.435Z,10.47
2023-05-12T22:38:33.903Z,10.57
2023-05-12T22:41:00.353Z,10.48
2023-05-12T22:43:26.887Z,10.48
2023-05-12T22:45:55.623Z,10.36
2023-05-12T22:48:22.820Z,10.22
2023-05-12T22:50:49.313Z,10.05
2023-05-12T22:53:15.862Z,9.89
2023-05-12T22:55:56.955Z,9.85
2023-05-12T22:58:24.031Z,9.68
2023-05-12T23:00:50.614Z,9.57
2023-05-12T23:03:17.068Z,9.43
2023-05-12T23:05:43.634Z,9.40
2023-05-12T23:08:10.105Z,9.35
2023-05-12T23:10:36.605Z,9.15
2023-05-12T23:13:03.051Z,8.93
2023-05-12T23:15:29.573Z,8.92
2023-05-12T23:17:56.102Z,9.01
2023-05-12T23:20:23.039Z,9.03
2023-05-12T23:22:49.677Z,9.08
2023-05-12T23:25:16.304Z,9.01
2023-05-12T23:27:42.727Z,9.11
2023-05-12T23:30:09.365Z,9.00
2023-05-12T23:32:36.124Z,8.88
2023-05-12T23:35:02.737Z,8.92
2023-05-12T23:37:29.224Z,8.98
2023-05-12T23:39:55.671Z,8.94
2023-05-12T23:42:22.119Z,8.90
2023-05-12T23:44:48.546Z,8.81
2023-05-12T23:47:14.973Z,8.59
2023-05-12T23:49:41.493Z,8.73
2023-05-12T23:52:08.365Z,8.75
2023-05-12T23:54:34.821Z,8.82
2023-05-12T23:57:01.288Z,8.81
2023-05-12T23:59:27.972Z,8.77
